Time;durP1;ratioP1;P1;durP2;ratioP2;P2;SDS_P1;SDS_P2;PMS_P1;PMS_P2;Temp;Humidity;BMP_temperature;BMP_pressure;BME280_temperature;BME280_humidity;BME280_pressure;Samples;Min_cycle;Max_cycle;Signal;HPM_P1;HPM_P2
2022/03/19 00:09:22;;;;;;;12.20;5.40;;;0.00;99.90;;;;;;20715203;28;20112;-47
2022/03/19 00:19:25;;;;;;;10.32;5.20;;;-0.10;99.90;;;;;;20639001;28;20400;-46
2022/03/19 00:29:27;;;;;;;10.60;5.45;;;0.10;99.90;;;;;;20709778;28;20078;-48
2022/03/19 00:39:30;;;;;;;12.77;5.63;;;0.20;99.90;;;;;;20908429;28;20055;-52
2022/03/19 00:49:32;;;;;;;12.65;4.85;;;0.10;99.90;;;;;;20908857;28;20106;-50
2022/03/19 00:59:35;;;;;;;9.18;5.03;;;0.10;99.90;;;;;;20906350;28;20044;-52
2022/03/19 01:09:38;;;;;;;9.25;4.68;;;0.00;99.90;;;;;;20915080;28;20032;-47
2022/03/19 01:19:58;;;;;;;13.23;5.88;;;-0.20;99.90;;;;;;20987706;28;20098;-48
2022/03/19 01:30:01;;;;;;;7.88;4.45;;;0.00;99.90;;;;;;20898178;28;20046;-49
2022/03/19 01:40:05;;;;;;;11.00;5.72;;;-0.10;99.90;;;;;;20714684;28;20039;-53
2022/03/19 01:50:10;;;;;;;10.52;4.35;;;-0.10;99.90;;;;;;20646947;28;20037;-47
2022/03/19 02:00:17;;;;;;;8.88;4.90;;;-0.10;99.90;;;;;;20692721;28;20030;-48
2022/03/19 02:10:22;;;;;;;7.13;4.30;;;-0.20;99.90;;;;;;20644645;28;20119;-49
2022/03/19 02:20:26;;;;;;;8.57;4.78;;;-0.10;99.90;;;;;;20695597;28;20057;-48
2022/03/19 02:30:30;;;;;;;14.65;7.72;;;-0.10;99.90;;;;;;20745228;28;20062;-50
2022/03/19 02:40:33;;;;;;;10.27;6.13;;;-0.30;99.90;;;;;;20710847;28;20042;-47
2022/03/19 02:50:37;;;;;;;15.65;8.05;;;-0.90;99.90;;;;;;20710078;28;20031;-48
2022/03/19 03:00:40;;;;;;;16.63;8.57;;;-1.10;99.90;;;;;;20709606;28;20550;-50
2022/03/19 03:10:42;;;;;;;13.70;5.72;;;-1.30;99.90;;;;;;20692898;28;20545;-50
2022/03/19 03:20:45;;;;;;;10.38;5.90;;;-1.20;99.90;;;;;;20639268;28;20105;-50
2022/03/19 03:30:47;;;;;;;20.38;7.22;;;-0.90;99.90;;;;;;20758156;28;20045;-47
2022/03/19 03:40:50;;;;;;;16.20;7.80;;;-0.60;99.90;;;;;;20913111;28;20053;-49
2022/03/19 03:50:55;;;;;;;18.88;8.25;;;-0.60;99.90;;;;;;20912290;28;20041;-46
2022/03/19 04:00:58;;;;;;;18.27;8.80;;;-0.80;99.90;;;;;;20911347;28;20441;-51
2022/03/19 04:11:01;;;;;;;18.75;9.80;;;-1.20;99.90;;;;;;20929794;28;20089;-46
2022/03/19 04:21:03;;;;;;;14.90;7.35;;;-1.50;99.90;;;;;;20992708;28;20090;-48
2022/03/19 04:31:06;;;;;;;17.75;9.50;;;-1.60;99.90;;;;;;20864461;28;20364;-47
2022/03/19 04:41:08;;;;;;;15.55;8.60;;;-1.30;99.90;;;;;;20702369;28;20038;-46
2022/03/19 04:51:16;;;;;;;19.17;9.85;;;-1.40;99.90;;;;;;20717911;28;20064;-50
2022/03/19 05:01:19;;;;;;;19.73;9.85;;;-1.60;99.90;;;;;;20717450;28;20449;-47
2022/03/19 05:11:22;;;;;;;20.27;10.48;;;-1.90;99.90;;;;;;20694997;28;20073;-47
2022/03/19 05:21:25;;;;;;;21.85;11.15;;;-1.90;99.90;;;;;;20879595;28;20107;-50
2022/03/19 05:31:28;;;;;;;23.60;11.27;;;-1.90;99.90;;;;;;20861676;28;20490;-51
2022/03/19 05:41:30;;;;;;;24.70;11.93;;;-1.90;99.90;;;;;;20877514;28;20053;-51
2022/03/19 05:51:32;;;;;;;34.47;12.02;;;-1.80;99.90;;;;;;20729247;28;20045;-51
2022/03/19 06:01:35;;;;;;;25.85;11.70;;;-1.60;99.90;;;;;;20728853;28;20042;-53
2022/03/19 06:11:39;;;;;;;24.02;11.85;;;-1.40;99.90;;;;;;20752230;28;20138;-48
2022/03/19 06:21:42;;;;;;;23.35;10.77;;;-1.10;99.90;;;;;;20819282;28;20113;-51
2022/03/19 06:31:45;;;;;;;24.65;11.95;;;-0.70;99.90;;;;;;20834063;28;20058;-50
2022/03/19 06:41:47;;;;;;;21.77;10.88;;;-0.50;99.90;;;;;;20710827;28;20373;-51
2022/03/19 06:51:50;;;;;;;22.02;10.63;;;-0.30;99.90;;;;;;20710227;28;20038;-46
2022/03/19 07:01:53;;;;;;;25.17;11.50;;;0.00;99.90;;;;;;20726957;28;20536;-51
2022/03/19 07:11:55;;;;;;;21.67;11.95;;;0.30;99.90;;;;;;20683180;28;20039;-52
2022/03/19 07:21:59;;;;;;;19.70;10.77;;;0.80;99.90;;;;;;20628848;28;20436;-50
2022/03/19 07:32:01;;;;;;;18.65;11.38;;;1.80;99.90;;;;;;20792493;28;20563;-52
2022/03/19 07:42:04;;;;;;;19.75;11.07;;;2.60;99.90;;;;;;20913586;28;20055;-47
2022/03/19 07:52:08;;;;;;;16.67;9.90;;;3.50;99.90;;;;;;20896277;28;20037;-49
2022/03/19 08:02:12;;;;;;;22.17;10.48;;;4.30;99.90;;;;;;20900029;28;20033;-49
2022/03/19 08:12:14;;;;;;;17.50;10.43;;;5.10;99.90;;;;;;20940194;28;20024;-52
2022/03/19 08:22:17;;;;;;;18.20;10.95;;;6.00;99.90;;;;;;20992793;28;20432;-48
2022/03/19 08:32:23;;;;;;;21.65;11.82;;;6.50;99.90;;;;;;20823350;28;20050;-51
2022/03/19 08:42:28;;;;;;;17.70;10.20;;;6.80;99.90;;;;;;20650561;28;20046;-49
2022/03/19 08:52:30;;;;;;;18.67;10.48;;;7.10;99.90;;;;;;20718784;28;20030;-52
2022/03/19 09:02:34;;;;;;;17.67;10.00;;;7.30;99.90;;;;;;20717684;28;20042;-53
2022/03/19 09:12:39;;;;;;;16.65;10.43;;;7.70;99.90;;;;;;20716879;28;20042;-52
2022/03/19 09:22:41;;;;;;;17.23;10.75;;;8.10;99.90;;;;;;20716044;28;20064;-52
2022/03/19 09:32:44;;;;;;;20.55;12.25;;;8.30;99.80;;;;;;20715377;28;20046;-52
2022/03/19 09:42:48;;;;;;;16.70;10.95;;;8.50;98.90;;;;;;20714964;28;20042;-52
2022/03/19 09:52:54;;;;;;;19.20;11.15;;;8.60;97.90;;;;;;20730745;28;20043;-49
2022/03/19 10:03:02;;;;;;;18.25;10.93;;;9.10;98.10;;;;;;20713279;28;20084;-51
2022/03/19 10:13:14;;;;;;;18.45;11.60;;;9.10;96.60;;;;;;20677143;28;20039;-49
2022/03/19 10:23:33;;;;;;;20.92;11.63;;;9.30;97.60;;;;;;20631579;28;20533;-53
2022/03/19 10:33:35;;;;;;;19.60;12.35;;;9.60;95.90;;;;;;20839227;28;20052;-52
2022/03/19 10:43:43;;;;;;;18.73;11.60;;;9.30;96.40;;;;;;20900089;28;20445;-54
2022/03/19 10:53:45;;;;;;;16.25;10.73;;;9.90;94.70;;;;;;20900390;28;20037;-51
2022/03/19 11:03:50;;;;;;;18.02;11.68;;;10.70;94.70;;;;;;20898587;28;20067;-52
2022/03/19 11:13:57;;;;;;;18.38;12.15;;;10.40;94.60;;;;;;20942121;28;20398;-53
2022/03/19 11:24:23;;;;;;;20.13;13.00;;;10.50;92.70;;;;;;20981321;28;20066;-52
2022/03/19 11:34:26;;;;;;;20.30;13.07;;;10.20;93.10;;;;;;20740451;28;20115;-52
2022/03/19 11:44:28;;;;;;;21.08;13.73;;;10.10;92.80;;;;;;20722175;28;20046;-55
2022/03/19 11:55:03;;;;;;;20.23;12.73;;;10.70;93.80;;;;;;20722111;28;20096;-53
2022/03/19 12:05:17;;;;;;;19.50;12.90;;;11.50;91.90;;;;;;20656178;28;20085;-54
2022/03/19 12:15:32;;;;;;;19.58;11.88;;;11.10;93.00;;;;;;20983974;28;20093;-50
2022/03/19 12:25:39;;;;;;;21.83;12.18;;;10.50;91.60;;;;;;20966159;28;20052;-53
2022/03/19 12:35:43;;;;;;;20.63;12.88;;;10.50;92.60;;;;;;20966098;28;20041;-54
2022/03/19 12:45:49;;;;;;;18.75;11.85;;;11.10;91.10;;;;;;20907556;28;20050;-54
2022/03/19 12:56:09;;;;;;;18.50;11.77;;;11.30;91.20;;;;;;20735418;28;20042;-50
2022/03/19 13:06:14;;;;;;;20.73;12.57;;;10.90;87.60;;;;;;20717328;28;20042;-52
2022/03/19 13:16:31;;;;;;;21.13;12.55;;;10.80;88.20;;;;;;20733484;28;20111;-53
2022/03/19 13:26:35;;;;;;;17.83;11.18;;;10.70;89.70;;;;;;20680323;28;20180;-52
2022/03/19 13:36:38;;;;;;;19.13;12.07;;;10.70;90.60;;;;;;20454643;28;20098;-52
2022/03/19 13:47:06;;;;;;;17.95;12.13;;;10.40;87.50;;;;;;20420813;29;20086;-51
2022/03/19 13:57:15;;;;;;;20.73;12.70;;;9.80;90.30;;;;;;20420030;29;20434;-52
2022/03/19 14:07:32;;;;;;;17.35;11.00;;;9.40;89.30;;;;;;20404868;29;20100;-52
2022/03/19 14:17:46;;;;;;;18.45;11.25;;;9.10;88.50;;;;;;20491428;28;20039;-51
2022/03/19 14:27:50;;;;;;;16.70;9.23;;;8.80;88.00;;;;;;20445880;28;20041;-49
2022/03/19 14:37:53;;;;;;;16.02;9.05;;;8.30;86.40;;;;;;20916238;28;20060;-49
2022/03/19 14:47:57;;;;;;;17.70;9.57;;;8.10;84.90;;;;;;20899224;28;20063;-51
2022/03/19 14:57:59;;;;;;;18.20;10.88;;;7.60;86.00;;;;;;20932194;28;20294;-49
2022/03/19 15:08:02;;;;;;;22.35;12.13;;;7.00;87.60;;;;;;20980827;28;20197;-50
2022/03/19 15:18:05;;;;;;;17.13;10.13;;;6.60;87.20;;;;;;20995443;28;20098;-48
2022/03/19 15:28:08;;;;;;;18.80;10.07;;;6.00;89.30;;;;;;20996824;28;20041;-49
2022/03/19 15:38:13;;;;;;;18.90;10.80;;;5.80;90.30;;;;;;21013158;28;20033;-49
2022/03/19 15:48:15;;;;;;;16.05;9.50;;;5.50;90.30;;;;;;20995603;28;20044;-49
2022/03/19 15:58:17;;;;;;;18.45;10.45;;;5.20;90.70;;;;;;21011213;28;20063;-50
2022/03/19 16:08:20;;;;;;;16.65;9.55;;;4.80;90.90;;;;;;20993949;28;20036;-53
2022/03/19 16:18:22;;;;;;;18.33;10.25;;;4.20;91.50;;;;;;20995630;28;20389;-50
2022/03/19 16:28:25;;;;;;;18.23;10.70;;;3.60;92.30;;;;;;20973912;28;20046;-50
2022/03/19 16:38:28;;;;;;;18.65;10.48;;;3.00;93.30;;;;;;20719418;28;20099;-48
2022/03/19 16:48:33;;;;;;;18.38;9.48;;;2.60;94.00;;;;;;20718585;28;20064;-47
2022/03/19 16:58:36;;;;;;;19.48;10.13;;;2.10;94.40;;;;;;20718413;28;20034;-47
2022/03/19 17:08:38;;;;;;;17.90;9.25;;;1.80;94.70;;;;;;20716987;28;20039;-52
2022/03/19 17:18:41;;;;;;;18.58;9.63;;;1.40;95.00;;;;;;20734588;28;20443;-47
2022/03/19 17:28:43;;;;;;;17.48;9.25;;;0.90;95.60;;;;;;20692834;28;20040;-47
2022/03/19 17:38:48;;;;;;;17.83;9.68;;;0.60;96.20;;;;;;20984889;28;20032;-53
2022/03/19 17:48:53;;;;;;;18.40;9.77;;;0.50;96.70;;;;;;20963446;28;20452;-48
2022/03/19 17:58:56;;;;;;;19.65;10.25;;;0.10;96.80;;;;;;20985295;28;20130;-47
2022/03/19 18:08:58;;;;;;;18.92;10.55;;;-0.20;97.80;;;;;;20810200;28;20045;-46
2022/03/19 18:19:01;;;;;;;18.02;8.82;;;-0.50;98.20;;;;;;20794306;28;20064;-49
2022/03/19 18:29:03;;;;;;;21.27;10.27;;;-0.50;98.90;;;;;;20808908;28;20045;-46
2022/03/19 18:39:07;;;;;;;19.73;10.60;;;-0.50;99.80;;;;;;20818461;28;20110;-49
2022/03/19 18:49:10;;;;;;;21.27;10.70;;;-0.60;99.90;;;;;;20944611;28;20103;-51
2022/03/19 18:59:12;;;;;;;19.33;10.23;;;-0.70;99.90;;;;;;20898821;28;20037;-51
2022/03/19 19:09:15;;;;;;;18.15;10.13;;;-0.80;99.90;;;;;;20903307;28;20468;-49
2022/03/19 19:19:18;;;;;;;16.77;8.98;;;-1.00;99.90;;;;;;20980893;28;20379;-51
2022/03/19 19:29:21;;;;;;;16.05;7.45;;;-1.30;99.90;;;;;;20914837;28;20103;-46
2022/03/19 19:39:27;;;;;;;15.20;7.05;;;-1.30;99.90;;;;;;20708587;28;20038;-50
2022/03/19 19:49:32;;;;;;;11.35;5.75;;;-1.50;99.50;;;;;;20708113;28;20399;-48
2022/03/19 19:59:36;;;;;;;10.35;5.65;;;-1.60;99.80;;;;;;20713229;28;20042;-48
2022/03/19 20:09:39;;;;;;;11.25;5.82;;;-1.70;99.30;;;;;;20713586;28;20061;-52
2022/03/19 20:19:41;;;;;;;11.93;5.50;;;-1.60;98.70;;;;;;20640122;28;20039;-48
2022/03/19 20:29:44;;;;;;;11.13;5.72;;;-1.70;98.80;;;;;;20717276;28;20073;-52
2022/03/19 20:39:48;;;;;;;10.95;5.07;;;-1.80;98.10;;;;;;20909047;28;20033;-48
2022/03/19 21:00:15;;;;;;;12.50;6.00;;;-1.80;97.50;;;;;;20799678;28;20041;-51
2022/03/19 21:10:20;;;;;;;12.98;5.25;;;-1.90;98.00;;;;;;20812077;28;20041;-49
2022/03/19 21:20:22;;;;;;;8.75;4.72;;;-2.10;98.50;;;;;;20880297;28;20087;-50
2022/03/19 21:30:25;;;;;;;12.32;5.85;;;-2.30;99.10;;;;;;20828351;28;20038;-53
2022/03/19 21:50:50;;;;;;;14.30;5.63;;;-2.20;98.20;;;;;;20715158;28;20046;-49
2022/03/19 22:00:53;;;;;;;12.40;5.78;;;-2.10;98.30;;;;;;20714326;28;20104;-48
2022/03/19 22:10:56;;;;;;;10.60;5.53;;;-2.00;98.00;;;;;;20695147;28;20399;-51
2022/03/19 22:21:02;;;;;;;12.25;6.00;;;-2.10;98.60;;;;;;20631316;28;20144;-48
2022/03/19 22:31:06;;;;;;;10.18;5.82;;;-2.20;99.20;;;;;;20664673;28;20043;-46
2022/03/19 22:41:10;;;;;;;14.15;6.70;;;-2.20;99.50;;;;;;20631013;28;20128;-45
2022/03/19 22:51:12;;;;;;;14.32;6.75;;;-2.30;99.90;;;;;;20630144;28;20064;-48
2022/03/19 23:01:15;;;;;;;14.27;6.20;;;-2.30;99.90;;;;;;20629412;28;20608;-46
2022/03/19 23:11:28;;;;;;;13.48;6.68;;;-2.30;99.90;;;;;;20649749;28;20031;-53
2022/03/19 23:21:31;;;;;;;12.05;7.35;;;-2.30;99.90;;;;;;20726505;28;20410;-48
2022/03/19 23:31:35;;;;;;;15.35;7.32;;;-2.00;99.90;;;;;;20709760;28;20423;-46
2022/03/19 23:41:40;;;;;;;15.73;7.97;;;-1.70;99.50;;;;;;20723327;28;20084;-48
2022/03/19 23:51:42;;;;;;;14.10;7.38;;;-1.90;99.70;;;;;;20722163;28;20092;-47
